Time;durP1;ratioP1;P1;durP2;ratioP2;P2;SDS_P1;SDS_P2;PMS_P1;PMS_P2;Temp;Humidity;BMP_temperature;BMP_pressure;BME280_temperature;BME280_humidity;BME280_pressure;Samples;Min_cycle;Max_cycle;Signal;HPM_P1;HPM_P2
2022/09/13 00:02:13;;;;;;;3.38;2.20;;;18.10;99.90;;;18.42;100.00;100471.78;5185410;28;20050;-72
2022/09/13 00:04:45;;;;;;;2.20;1.70;;;18.00;99.90;;;18.42;100.00;100464.75;5186611;28;20138;-72
2022/09/13 00:07:17;;;;;;;3.53;2.10;;;18.00;99.90;;;18.43;100.00;100470.91;5185381;28;20049;-72
2022/09/13 00:09:51;;;;;;;3.58;1.95;;;18.00;99.90;;;18.46;100.00;100457.72;5186466;28;20148;-72
2022/09/13 00:12:23;;;;;;;3.25;2.05;;;18.00;99.90;;;18.48;100.00;100461.22;5186469;28;20560;-71
2022/09/13 00:14:55;;;;;;;2.90;2.03;;;18.10;99.90;;;18.47;100.00;100454.19;5186243;28;20400;-72
2022/09/13 00:17:28;;;;;;;3.22;1.83;;;18.00;99.90;;;18.44;100.00;100454.19;5186305;28;20048;-72
2022/09/13 00:20:00;;;;;;;2.90;2.08;;;18.00;99.90;;;18.42;100.00;100448.03;5186164;28;20490;-71
2022/09/13 00:22:32;;;;;;;2.63;1.92;;;18.00;99.90;;;18.38;100.00;100443.63;5186314;28;20042;-72
2022/09/13 00:25:08;;;;;;;3.15;1.90;;;18.00;99.90;;;18.34;100.00;100447.19;5185150;28;20046;-71
2022/09/13 00:27:40;;;;;;;4.35;2.30;;;17.90;99.90;;;18.29;100.00;100452.47;5185794;28;20076;-71
2022/09/13 00:30:13;;;;;;;4.13;2.22;;;17.90;99.90;;;18.27;100.00;100442.81;5184962;28;20053;-72
2022/09/13 00:32:46;;;;;;;3.70;2.15;;;17.90;99.90;;;18.24;100.00;100426.97;5184672;28;20152;-72
2022/09/13 00:35:19;;;;;;;2.90;2.22;;;17.90;99.90;;;18.18;100.00;100423.47;5186075;28;20338;-72
2022/09/13 00:37:51;;;;;;;3.45;2.03;;;17.80;99.90;;;18.16;100.00;100430.50;5185545;28;20410;-72
2022/09/13 00:40:25;;;;;;;2.97;2.03;;;17.80;99.90;;;18.14;100.00;100441.97;5185532;28;20144;-72
2022/09/13 00:42:57;;;;;;;3.40;1.95;;;17.80;99.90;;;18.13;100.00;100445.47;5185722;28;20046;-72
2022/09/13 00:45:30;;;;;;;3.50;2.33;;;17.80;99.90;;;18.09;100.00;100439.31;5200613;28;20104;-72
2022/09/13 00:48:06;;;;;;;3.85;2.20;;;17.70;99.90;;;18.07;100.00;100440.22;5184092;28;20046;-71
2022/09/13 00:50:41;;;;;;;4.45;2.55;;;17.70;99.90;;;18.03;100.00;100441.97;5185841;28;20061;-72
2022/09/13 00:53:21;;;;;;;4.30;2.15;;;17.60;99.90;;;18.00;100.00;100436.69;5184237;28;20049;-72
2022/09/13 00:55:59;;;;;;;4.47;2.20;;;17.60;99.90;;;17.96;100.00;100427.03;5183622;28;20052;-71
2022/09/13 00:58:36;;;;;;;3.55;2.30;;;17.60;99.90;;;17.95;100.00;100429.66;5185801;28;20046;-74
2022/09/13 01:01:13;;;;;;;2.80;2.10;;;17.60;99.90;;;17.94;100.00;100443.75;5185074;28;20045;-71
2022/09/13 01:03:48;;;;;;;3.92;2.35;;;17.60;99.90;;;17.92;100.00;100430.53;5185613;28;20495;-73
2022/09/13 01:06:28;;;;;;;3.42;2.10;;;17.50;99.90;;;17.90;100.00;100429.66;5184936;28;20065;-71
2022/09/13 01:09:03;;;;;;;3.63;2.42;;;17.50;99.90;;;17.87;100.00;100442.88;5185249;28;20054;-71
2022/09/13 01:11:47;;;;;;;3.70;2.13;;;17.50;99.90;;;17.84;100.00;100449.00;5185265;28;20069;-72
2022/09/13 01:14:22;;;;;;;3.95;2.00;;;17.50;99.90;;;17.82;100.00;100450.78;5183731;28;20095;-71
2022/09/13 01:16:54;;;;;;;3.67;2.25;;;17.50;99.90;;;17.81;100.00;100451.66;5184728;28;20053;-71
2022/09/13 01:19:27;;;;;;;3.15;2.03;;;17.40;99.90;;;17.79;100.00;100452.50;5184157;28;20042;-71
2022/09/13 01:22:39;;;;;;;3.35;2.08;;;17.40;99.90;;;17.79;100.00;100447.25;5185136;28;20502;-71
2022/09/13 01:25:53;;;;;;;3.40;2.20;;;17.40;99.90;;;17.79;100.00;100436.69;5184677;28;20132;-72
2022/09/13 01:29:14;;;;;;;5.28;2.00;;;17.40;99.90;;;17.80;100.00;100441.09;5185347;28;20052;-72
2022/09/13 01:31:56;;;;;;;3.33;2.20;;;17.40;99.90;;;17.81;100.00;100442.88;5184999;28;20506;-71
2022/09/13 01:34:42;;;;;;;3.55;2.08;;;17.40;99.90;;;17.82;100.00;100441.97;5184735;28;20494;-72
2022/09/13 01:37:42;;;;;;;3.60;2.10;;;17.40;99.90;;;17.82;100.00;100449.91;5184529;28;20529;-72
2022/09/13 01:40:21;;;;;;;;;;;17.50;99.90;;;17.80;100.00;100442.00;5185477;28;20387;-73
2022/09/13 01:43:16;;;;;;;3.60;2.28;;;17.40;99.90;;;17.80;100.00;100446.34;5184716;28;19929;-71
2022/09/13 01:45:56;;;;;;;3.67;2.20;;;17.50;99.90;;;17.78;100.00;100449.00;5184193;28;20521;-71
2022/09/13 01:48:47;;;;;;;3.50;2.15;;;17.40;99.90;;;17.75;100.00;100449.00;5183436;28;20420;-71
2022/09/13 01:51:28;;;;;;;3.42;2.22;;;17.40;99.90;;;17.72;100.00;100450.75;5184469;28;20056;-71
2022/09/13 01:54:12;;;;;;;;;;;17.40;99.90;;;17.69;100.00;100442.84;5185135;28;20403;-71
2022/09/13 01:56:55;;;;;;;3.05;2.13;;;17.30;99.90;;;17.69;100.00;100445.47;5184178;28;19935;-71
2022/09/13 01:59:37;;;;;;;3.47;2.28;;;17.30;99.90;;;17.70;100.00;100449.84;5229734;22;20043;-86
2022/09/13 02:02:18;;;;;;;3.35;2.10;;;17.30;99.90;;;17.72;100.00;100440.22;5222445;28;20037;-86
2022/09/13 02:04:56;;;;;;;4.18;2.53;;;17.30;99.90;;;17.75;100.00;100433.19;5213460;28;20037;-85
2022/09/13 02:07:34;;;;;;;4.13;2.35;;;17.40;99.90;;;17.79;100.00;100428.78;5211265;28;20072;-88
2022/09/13 02:10:12;;;;;;;4.78;2.40;;;17.40;99.90;;;17.81;100.00;100425.28;5212466;28;20060;-86
2022/09/13 02:12:48;;;;;;;4.25;2.42;;;17.40;99.90;;;17.82;100.00;100429.69;5211525;28;20053;-85
2022/09/13 02:15:25;;;;;;;3.85;1.98;;;17.50;99.90;;;17.84;100.00;100430.53;5212570;28;20045;-86
2022/09/13 02:18:06;;;;;;;5.28;2.40;;;17.50;99.90;;;17.84;100.00;100432.31;5210847;28;20045;-87
2022/09/13 02:20:45;;;;;;;3.78;2.22;;;17.40;99.90;;;17.84;100.00;100427.03;5210705;28;20046;-85
2022/09/13 02:23:22;;;;;;;4.10;2.20;;;17.50;99.90;;;17.85;100.00;100434.06;5211159;28;20395;-85
2022/09/13 02:25:57;;;;;;;4.38;2.47;;;17.50;99.90;;;17.84;100.00;100432.31;5212151;28;20041;-84
2022/09/13 02:28:35;;;;;;;3.60;2.20;;;17.50;99.90;;;17.82;100.00;100427.03;5211250;28;20048;-85
2022/09/13 02:31:09;;;;;;;3.35;2.05;;;17.50;99.90;;;17.83;100.00;100420.88;5213899;28;20455;-84
2022/09/13 02:33:47;;;;;;;4.40;2.58;;;17.50;99.90;;;17.86;100.00;100420.00;5214944;28;20152;-86
2022/09/13 02:36:25;;;;;;;3.38;2.30;;;17.50;99.90;;;17.86;100.00;100420.00;5215158;28;20491;-86
2022/09/13 02:39:00;;;;;;;3.15;2.33;;;17.50;99.90;;;17.86;100.00;100420.00;5217664;28;20492;-86
2022/09/13 02:41:40;;;;;;;3.25;2.17;;;17.50;99.90;;;17.88;100.00;100416.50;5224770;28;20056;-85
2022/09/13 02:44:19;;;;;;;4.00;2.38;;;17.50;99.90;;;17.89;100.00;100409.47;5215477;28;20072;-85
2022/09/13 02:47:10;;;;;;;3.45;2.15;;;17.50;99.90;;;17.94;100.00;100417.38;5221711;28;20037;-85
2022/09/13 02:49:54;;;;;;;2.95;1.90;;;17.60;99.90;;;17.97;100.00;100412.06;5218398;28;20045;-86
2022/09/13 02:52:40;;;;;;;3.70;2.00;;;17.60;99.90;;;18.00;100.00;100407.69;5216589;28;20037;-86
2022/09/13 02:55:19;;;;;;;4.03;2.28;;;17.60;99.90;;;18.02;100.00;100411.19;5215926;28;20049;-86
2022/09/13 02:58:02;;;;;;;3.65;2.00;;;17.60;99.90;;;18.06;100.00;100407.69;5232183;28;20048;-85
2022/09/13 03:00:35;;;;;;;3.08;2.22;;;17.70;99.90;;;18.07;100.00;100420.00;5216488;28;20045;-87
2022/09/13 03:03:11;;;;;;;3.33;2.22;;;17.70;99.90;;;18.09;100.00;100419.97;5216559;28;20108;-86
2022/09/13 03:05:44;;;;;;;3.38;2.22;;;17.70;99.90;;;18.10;100.00;100413.81;5216345;28;20128;-86
2022/09/13 03:08:18;;;;;;;3.60;2.17;;;17.70;99.90;;;18.09;100.00;100423.50;5217582;28;20056;-86
2022/09/13 03:11:06;;;;;;;3.03;1.95;;;17.70;99.90;;;18.10;100.00;100416.44;5217742;28;20530;-86
2022/09/13 03:14:04;;;;;;;3.53;2.15;;;17.70;99.90;;;18.10;100.00;100425.25;5217061;28;20045;-85
2022/09/13 03:17:08;;;;;;;3.75;2.00;;;17.70;99.90;;;18.09;100.00;100412.94;5215662;28;20056;-85
2022/09/13 03:20:10;;;;;;;3.92;1.98;;;17.70;99.90;;;18.09;100.00;100412.94;5219588;28;20049;-86
2022/09/13 03:23:11;;;;;;;3.03;2.17;;;17.70;99.90;;;18.10;100.00;100417.31;5213284;28;20049;-85
2022/09/13 03:26:18;;;;;;;3.55;2.10;;;17.70;99.90;;;18.10;100.00;100408.53;5216494;28;20112;-87
2022/09/13 03:29:03;;;;;;;3.83;2.47;;;17.70;99.90;;;18.10;100.00;100398.88;5217691;28;20084;-85
2022/09/13 03:31:43;;;;;;;3.65;2.35;;;17.70;99.90;;;18.10;100.00;100393.59;5213988;28;20052;-85
2022/09/13 03:34:29;;;;;;;3.22;1.92;;;17.70;99.90;;;18.13;100.00;100390.97;5214621;28;20057;-85
2022/09/13 03:37:08;;;;;;;3.85;2.20;;;17.80;99.90;;;18.12;100.00;100389.19;5214781;28;20056;-85
2022/09/13 03:39:45;;;;;;;2.55;2.00;;;17.80;99.90;;;18.13;100.00;100393.59;5213703;28;20041;-86
2022/09/13 03:42:29;;;;;;;3.65;2.28;;;17.80;99.90;;;18.14;100.00;100384.81;5212978;28;20581;-85
2022/09/13 03:45:03;;;;;;;2.88;2.10;;;17.80;99.90;;;18.15;100.00;100380.41;5216675;28;20506;-86
2022/09/13 03:47:38;;;;;;;2.83;2.03;;;17.80;99.90;;;18.15;100.00;100389.19;5218101;28;20073;-86
2022/09/13 03:50:16;;;;;;;3.05;2.20;;;17.80;99.90;;;18.16;100.00;100395.34;5225415;28;20052;-87
2022/09/13 03:52:54;;;;;;;3.80;2.00;;;17.80;99.90;;;18.14;100.00;100384.81;5233022;28;20059;-86
2022/09/13 03:55:27;;;;;;;2.70;1.75;;;17.80;99.90;;;18.18;100.00;100385.66;5232527;28;20033;-85
2022/09/13 03:58:01;;;;;;;2.78;2.08;;;17.80;99.90;;;18.20;100.00;100385.69;5220604;28;20107;-86
2022/09/13 04:00:33;;;;;;;2.60;1.80;;;17.80;99.90;;;18.20;100.00;100385.69;5215412;28;20047;-87
2022/09/13 04:03:05;;;;;;;3.20;2.00;;;17.80;99.90;;;18.20;100.00;100380.41;5214058;28;20041;-85
2022/09/13 04:05:37;;;;;;;3.05;1.90;;;17.90;99.90;;;18.18;100.00;100380.38;5213406;28;20050;-85
2022/09/13 04:08:10;;;;;;;2.80;1.90;;;17.80;99.90;;;18.20;100.00;100367.22;5222903;28;20056;-85
2022/09/13 04:10:42;;;;;;;3.60;2.03;;;17.90;99.90;;;18.21;100.00;100374.25;5219257;28;20048;-86
2022/09/13 04:13:16;;;;;;;2.55;1.90;;;17.80;99.90;;;18.21;100.00;100377.75;5216107;28;20049;-87
2022/09/13 04:15:48;;;;;;;3.50;2.05;;;17.90;99.90;;;18.25;100.00;100386.50;5215264;28;20065;-87
2022/09/13 04:18:20;;;;;;;2.78;1.85;;;17.90;99.90;;;18.26;100.00;100383.91;5213391;28;20041;-85
2022/09/13 04:20:57;;;;;;;3.10;1.90;;;17.90;99.90;;;18.30;100.00;100387.38;5213036;28;20091;-86
2022/09/13 04:23:30;;;;;;;2.92;2.05;;;18.00;99.90;;;18.32;100.00;100386.50;5214538;28;20076;-86
2022/09/13 04:26:04;;;;;;;2.10;1.67;;;18.00;99.90;;;18.35;100.00;100396.16;5213168;28;20519;-85
2022/09/13 04:28:37;;;;;;;3.00;1.90;;;18.00;99.90;;;18.36;100.00;100395.28;5214326;28;20065;-87
2022/09/13 04:31:09;;;;;;;1.95;1.65;;;18.00;99.90;;;18.38;100.00;100407.56;5214196;28;20045;-87
2022/09/13 04:33:42;;;;;;;3.15;1.90;;;18.00;99.90;;;18.39;100.00;100406.72;5213992;28;20092;-86
2022/09/13 04:36:14;;;;;;;2.83;1.90;;;18.00;99.90;;;18.41;100.00;100415.50;5214824;28;20045;-87
2022/09/13 04:38:47;;;;;;;3.05;2.05;;;18.00;99.90;;;18.42;100.00;100406.69;5214877;28;20046;-86
2022/09/13 04:41:19;;;;;;;2.85;1.95;;;18.00;99.90;;;18.44;100.00;100420.75;5213867;28;20133;-89
2022/09/13 04:43:53;;;;;;;2.88;1.90;;;18.10;99.90;;;18.44;100.00;100410.19;5214932;28;20068;-86
2022/09/13 04:46:25;;;;;;;3.25;2.20;;;18.00;99.90;;;18.43;100.00;100407.56;5214568;28;20049;-86
2022/09/13 04:48:57;;;;;;;2.17;1.75;;;18.10;99.90;;;18.45;100.00;100421.63;5215285;28;20037;-85
2022/09/13 04:51:29;;;;;;;3.17;1.90;;;18.10;99.90;;;18.44;100.00;100423.38;5223554;28;20438;-85
2022/09/13 04:54:02;;;;;;;3.45;2.10;;;18.10;99.90;;;18.46;100.00;100423.41;5213274;28;20427;-86
2022/09/13 04:56:34;;;;;;;2.28;1.83;;;18.10;99.90;;;18.46;100.00;100426.06;5212947;28;20047;-86
2022/09/13 04:59:09;;;;;;;2.65;1.73;;;18.10;99.90;;;18.45;100.00;100418.97;5229142;28;20049;-85
2022/09/13 05:01:41;;;;;;;2.28;1.80;;;18.10;99.90;;;18.46;100.00;100423.41;5214362;28;20069;-89
2022/09/13 05:04:13;;;;;;;2.10;1.90;;;18.10;99.90;;;18.45;100.00;100421.63;5212750;28;20072;-85
2022/09/13 05:06:47;;;;;;;2.55;1.60;;;18.10;99.90;;;18.47;100.00;100419.88;5212421;28;20041;-86
2022/09/13 05:09:19;;;;;;;3.50;1.67;;;18.10;99.90;;;18.46;100.00;100418.13;5213697;28;20041;-86
2022/09/13 05:11:51;;;;;;;3.28;1.90;;;18.10;99.90;;;18.47;100.00;100422.53;5212346;28;20049;-85
2022/09/13 05:14:24;;;;;;;3.03;1.92;;;18.10;99.90;;;18.46;100.00;100433.97;5212714;28;20053;-84
2022/09/13 05:16:57;;;;;;;3.67;2.00;;;18.10;99.90;;;18.47;100.00;100425.16;5213642;28;20033;-85
2022/09/13 05:19:29;;;;;;;5.80;2.50;;;18.10;99.90;;;18.48;100.00;100426.03;5194738;28;20049;-83
2022/09/13 05:22:02;;;;;;;2.88;1.88;;;18.10;99.90;;;18.49;100.00;100422.50;5191221;28;20140;-86
2022/09/13 05:24:34;;;;;;;5.18;2.53;;;18.10;99.90;;;18.49;100.00;100418.09;5191709;28;20141;-86
2022/09/13 05:27:06;;;;;;;4.50;2.47;;;18.10;99.90;;;18.48;100.00;100416.34;5191489;28;20042;-86
2022/09/13 05:29:40;;;;;;;4.80;2.42;;;18.10;99.90;;;18.49;100.00;100422.50;5191772;28;20092;-86
2022/09/13 05:32:12;;;;;;;3.15;2.10;;;18.10;99.90;;;18.48;100.00;100421.63;5191745;28;20467;-86
2022/09/13 05:34:45;;;;;;;3.22;2.10;;;18.10;99.90;;;18.49;100.00;100417.22;5189428;28;20042;-86
2022/09/13 05:37:18;;;;;;;3.78;2.30;;;18.20;99.90;;;18.48;100.00;100421.63;5190347;28;20041;-85
2022/09/13 05:39:50;;;;;;;3.00;2.13;;;18.20;99.90;;;18.46;100.00;100419.91;5190530;28;20488;-87
2022/09/13 05:42:23;;;;;;;4.35;2.67;;;18.10;99.90;;;18.50;100.00;100429.53;5191883;28;20089;-85
2022/09/13 05:44:57;;;;;;;3.90;2.10;;;18.20;99.90;;;18.50;100.00;100426.91;5192788;28;20165;-86
2022/09/13 05:47:29;;;;;;;4.13;2.60;;;18.20;99.90;;;18.51;100.00;100421.59;5204960;28;20077;-87
2022/09/13 05:50:02;;;;;;;3.67;2.08;;;18.20;99.90;;;18.54;100.00;100421.63;5190616;28;20058;-86
2022/09/13 05:52:34;;;;;;;3.08;2.33;;;18.20;99.90;;;18.55;100.00;100420.72;5190435;28;20054;-85
2022/09/13 05:55:08;;;;;;;3.35;2.20;;;18.20;99.90;;;18.57;100.00;100415.44;5190577;28;20058;-87
2022/09/13 05:57:40;;;;;;;3.42;2.22;;;18.20;99.90;;;18.58;100.00;100402.25;5189969;28;20042;-85
2022/09/13 06:00:16;;;;;;;3.15;2.25;;;18.20;99.90;;;18.59;100.00;100406.66;5192890;28;20054;-85
2022/09/13 06:02:49;;;;;;;2.95;1.70;;;18.20;99.90;;;18.59;100.00;100417.19;5190722;28;20050;-87
2022/09/13 06:05:21;;;;;;;3.10;2.10;;;18.20;99.90;;;18.61;100.00;100418.06;5191888;28;20053;-83
2022/09/13 06:07:53;;;;;;;2.88;2.08;;;18.30;99.90;;;18.62;100.00;100409.25;5190701;28;20075;-85
2022/09/13 06:10:26;;;;;;;4.03;2.33;;;18.30;99.90;;;18.65;100.00;100418.94;5189221;28;20050;-82
2022/09/13 06:12:58;;;;;;;3.03;2.20;;;18.30;99.90;;;18.66;100.00;100418.97;5188929;28;20048;-84
2022/09/13 06:15:32;;;;;;;2.83;1.77;;;18.30;99.90;;;18.70;100.00;100428.59;5189783;28;20050;-84
2022/09/13 06:18:05;;;;;;;2.88;1.98;;;18.30;99.90;;;18.73;100.00;100411.03;5188053;28;20100;-86
2022/09/13 06:20:37;;;;;;;3.50;2.28;;;18.30;99.90;;;18.76;100.00;100416.28;5189025;28;20065;-83
2022/09/13 06:23:10;;;;;;;1.92;1.63;;;18.40;99.90;;;18.78;100.00;100411.84;5189026;28;20046;-84
2022/09/13 06:25:43;;;;;;;4.38;2.17;;;18.40;99.90;;;18.81;100.00;100410.09;5190826;28;20563;-84
2022/09/13 06:28:15;;;;;;;3.78;2.33;;;18.40;99.90;;;18.85;100.00;100410.97;5208885;28;20060;-83
2022/09/13 06:30:49;;;;;;;2.65;1.83;;;18.50;99.90;;;18.89;100.00;100410.03;5207582;28;20526;-85
2022/09/13 06:33:22;;;;;;;2.60;1.90;;;18.50;99.90;;;18.93;100.00;100419.72;5193677;28;20089;-85
2022/09/13 06:35:54;;;;;;;3.10;2.33;;;18.50;99.90;;;18.96;100.00;100420.56;5189368;28;20088;-85
2022/09/13 06:38:26;;;;;;;2.88;1.80;;;18.60;99.90;;;19.01;100.00;100423.19;5189824;28;20057;-85
2022/09/13 06:41:03;;;;;;;3.55;1.92;;;18.60;99.90;;;19.07;100.00;100427.56;5189646;28;20045;-85
2022/09/13 06:43:36;;;;;;;3.10;1.90;;;18.60;99.90;;;19.10;100.00;100420.47;5189392;28;20049;-84
2022/09/13 06:46:16;;;;;;;3.15;1.90;;;18.70;99.90;;;19.16;100.00;100422.22;5190105;28;20050;-85
2022/09/13 06:48:48;;;;;;;3.17;1.58;;;18.70;99.90;;;19.20;100.00;100413.38;5190011;28;20052;-85
2022/09/13 06:51:23;;;;;;;2.75;1.80;;;18.80;99.90;;;19.21;100.00;100409.84;5190208;28;20050;-85
2022/09/13 06:53:56;;;;;;;2.80;1.80;;;18.80;99.90;;;19.23;100.00;100408.97;5189945;28;20131;-85
2022/09/13 06:56:31;;;;;;;3.50;1.70;;;18.80;99.90;;;19.24;100.00;100416.00;5189585;28;20522;-84
2022/09/13 06:59:06;;;;;;;3.00;1.77;;;18.90;99.90;;;19.27;100.00;100409.81;5189190;28;20527;-85
2022/09/13 07:01:42;;;;;;;3.17;1.92;;;18.90;99.90;;;19.30;100.00;100403.63;5190185;28;20049;-84
2022/09/13 07:04:18;;;;;;;3.47;1.85;;;18.90;99.90;;;19.31;100.00;100414.22;5189023;28;20050;-84
2022/09/13 07:06:50;;;;;;;2.88;1.73;;;18.90;99.90;;;19.35;100.00;100408.00;5181644;28;20050;-83
2022/09/13 07:09:23;;;;;;;2.80;1.92;;;18.90;99.90;;;19.42;100.00;100404.41;5190112;28;20088;-85
2022/09/13 07:11:56;;;;;;;3.88;1.95;;;19.00;99.90;;;19.46;100.00;100407.91;5190233;28;20072;-85
2022/09/13 07:14:30;;;;;;;2.30;1.70;;;19.00;99.90;;;19.51;100.00;100414.06;5190064;28;20046;-85
2022/09/13 07:17:04;;;;;;;2.95;1.73;;;19.10;99.90;;;19.60;100.00;100413.13;5191498;28;20053;-85
2022/09/13 07:19:36;;;;;;;3.75;2.03;;;19.20;99.90;;;19.67;100.00;100404.25;5193433;28;20050;-83
2022/09/13 07:22:08;;;;;;;4.53;2.47;;;19.20;99.90;;;19.70;100.00;100405.13;5193629;28;20056;-85
2022/09/13 07:24:40;;;;;;;5.22;2.33;;;19.30;99.90;;;19.73;100.00;100415.66;5193787;28;20054;-85
2022/09/13 07:27:15;;;;;;;4.43;2.33;;;19.30;99.90;;;19.77;100.00;100416.53;5193682;28;20069;-84
2022/09/13 07:29:47;;;;;;;4.05;2.22;;;19.30;99.90;;;19.84;100.00;100422.63;5194228;28;20042;-84
2022/09/13 07:32:21;;;;;;;4.38;2.30;;;19.40;99.90;;;19.93;100.00;100422.53;5194811;28;20041;-85
2022/09/13 07:34:53;;;;;;;4.35;2.08;;;19.40;99.90;;;20.00;100.00;100424.22;5192599;28;20050;-85
2022/09/13 07:37:27;;;;;;;4.40;2.15;;;19.50;99.90;;;20.07;100.00;100425.91;5193031;28;20061;-85
2022/09/13 07:39:59;;;;;;;3.38;2.17;;;19.60;99.90;;;20.14;100.00;100424.97;5192849;28;20046;-85
2022/09/13 07:42:32;;;;;;;3.47;2.00;;;19.60;99.90;;;20.23;100.00;100427.53;5192949;28;20073;-85
2022/09/13 07:45:05;;;;;;;5.22;2.10;;;19.70;99.90;;;20.31;100.00;100425.69;5191995;28;20100;-85
2022/09/13 07:47:40;;;;;;;2.58;1.98;;;19.80;99.90;;;20.39;100.00;100414.13;5191625;28;20489;-85
2022/09/13 07:50:12;;;;;;;3.58;2.00;;;19.90;99.90;;;20.48;100.00;100417.59;5192536;28;20045;-85
2022/09/13 07:52:44;;;;;;;3.45;2.10;;;20.00;99.90;;;20.60;100.00;100421.84;5192376;28;20423;-85
2022/09/13 07:55:16;;;;;;;3.03;1.92;;;20.10;99.90;;;20.73;99.87;100415.50;5191960;28;20480;-86
2022/09/13 07:57:49;;;;;;;4.45;1.90;;;20.20;99.90;;;20.89;99.63;100423.25;5192173;28;20457;-84
2022/09/13 08:00:24;;;;;;;3.17;2.00;;;20.30;99.90;;;21.04;98.88;100417.75;5191887;28;20524;-85
2022/09/13 08:02:57;;;;;;;3.60;2.10;;;20.40;99.80;;;21.18;98.03;100421.06;5191271;28;20093;-85
2022/09/13 08:05:31;;;;;;;3.00;1.73;;;20.50;99.80;;;21.29;96.91;100413.88;5191719;28;20046;-84
2022/09/13 08:08:03;;;;;;;3.58;1.95;;;20.60;99.20;;;21.42;96.44;100429.59;5191396;28;20144;-84
2022/09/13 08:10:35;;;;;;;3.80;2.10;;;20.70;99.00;;;21.62;95.79;100427.50;5191559;28;20058;-86
2022/09/13 08:13:08;;;;;;;3.15;2.25;;;20.90;98.90;;;21.84;94.71;100430.66;5191677;28;20580;-85
2022/09/13 08:15:40;;;;;;;3.83;1.90;;;21.00;98.60;;;21.98;93.13;100430.44;5190074;28;20050;-85
2022/09/13 08:18:14;;;;;;;3.80;2.15;;;21.20;98.00;;;22.10;92.17;100428.44;5190008;28;20496;-84
2022/09/13 08:20:46;;;;;;;3.15;1.88;;;21.30;97.70;;;22.28;92.10;100424.59;5190725;28;20060;-85
2022/09/13 08:23:19;;;;;;;3.15;2.05;;;21.40;97.50;;;22.59;91.63;100430.19;5190384;28;20106;-84
2022/09/13 08:25:51;;;;;;;3.80;2.10;;;21.60;97.60;;;22.95;90.80;100428.59;5189520;28;20626;-84
2022/09/13 08:28:24;;;;;;;4.43;1.92;;;21.90;97.50;;;23.30;88.72;100426.91;5188921;28;20049;-85
2022/09/13 08:30:56;;;;;;;3.95;1.92;;;22.10;96.80;;;23.66;87.05;100421.63;5189024;28;20550;-85
2022/09/13 08:33:31;;;;;;;3.97;2.20;;;22.40;96.20;;;24.00;85.22;100422.53;5189221;28;20041;-84
2022/09/13 08:36:04;;;;;;;;;;;22.70;95.60;;;24.38;84.34;100423.28;5189585;28;20045;-84
2022/09/13 08:38:36;;;;;;;3.85;1.88;;;23.00;95.20;;;24.97;82.41;100422.47;5277137;22;19928;-63
2022/09/13 08:41:54;;;;;;;3.70;1.90;;;23.40;94.50;;;25.67;79.74;100413.13;5204482;28;20041;-61
2022/09/13 08:44:30;;;;;;;2.50;1.70;;;24.00;93.70;;;25.95;76.97;100422.91;5203846;28;20529;-60
2022/09/13 08:47:30;;;;;;;4.25;1.90;;;24.30;92.00;;;25.95;76.28;100425.56;5204596;28;20049;-61
2022/09/13 08:50:17;;;;;;;4.03;2.05;;;24.40;91.30;;;25.90;75.43;100428.41;5203699;28;20053;-62
2022/09/13 08:53:04;;;;;;;2.97;1.70;;;24.50;90.50;;;25.98;76.60;100421.00;5205069;28;20052;-62
2022/09/13 08:55:51;;;;;;;2.63;1.38;;;24.60;90.70;;;25.89;75.13;100426.69;5203501;28;20050;-62
2022/09/13 08:58:40;;;;;;;1.63;1.30;;;24.70;89.60;;;25.63;75.62;100422.19;5204987;28;20044;-62
2022/09/13 09:01:27;;;;;;;3.22;1.70;;;24.50;89.00;;;25.38;76.78;100423.91;5205083;28;20073;-61
2022/09/13 09:04:03;;;;;;;;;;;24.30;89.60;;;25.07;77.68;100429.31;5205204;28;20046;-61
2022/09/13 09:06:37;;;;;;;1.52;1.20;;;24.10;90.10;;;24.93;79.35;100421.72;5204323;28;19921;-61
2022/09/13 09:09:15;;;;;;;3.05;1.58;;;24.00;90.50;;;24.86;80.90;100429.03;5204433;28;20042;-62
2022/09/13 09:11:55;;;;;;;2.83;1.58;;;23.90;91.20;;;24.89;82.35;100430.72;5204616;28;20045;-62
2022/09/13 09:14:33;;;;;;;2.30;1.65;;;23.90;91.70;;;25.04;81.22;100424.97;5204931;28;20041;-61
2022/09/13 09:17:11;;;;;;;3.13;1.60;;;24.00;91.50;;;25.23;80.82;100429.72;5204919;28;20037;-62
2022/09/13 09:19:49;;;;;;;3.35;1.63;;;24.20;91.30;;;25.35;79.62;100424.84;5204280;28;20041;-62
2022/09/13 09:22:28;;;;;;;2.35;1.50;;;24.30;90.80;;;25.49;78.74;100432.41;5204543;28;20197;-61
2022/09/13 09:25:01;;;;;;;2.85;1.60;;;24.40;90.30;;;25.61;78.92;100432.03;5204404;28;20041;-61
2022/09/13 09:27:33;;;;;;;2.45;1.55;;;24.60;90.30;;;25.68;79.38;100433.56;5204330;28;20049;-61
2022/09/13 09:30:13;;;;;;;2.38;1.50;;;24.70;90.40;;;25.75;78.59;100434.25;5202973;28;20513;-61
2022/09/13 09:33:22;;;;;;;1.92;1.40;;;24.80;90.10;;;25.78;78.39;100433.31;5204484;28;20045;-62
2022/09/13 09:36:03;;;;;;;2.28;1.42;;;24.80;89.80;;;25.85;77.72;100434.84;5182470;28;20061;-61
2022/09/13 09:38:42;;;;;;;2.40;1.38;;;24.90;89.00;;;25.90;77.78;100432.91;5203903;28;20420;-61
2022/09/13 09:41:23;;;;;;;1.77;1.08;;;24.90;88.70;;;25.98;78.06;100436.16;5203749;28;20128;-61
2022/09/13 09:44:02;;;;;;;1.63;1.48;;;25.00;88.80;;;25.96;76.72;100432.69;5203946;28;20049;-64
2022/09/13 09:46:38;;;;;;;3.75;1.83;;;25.10;87.60;;;25.97;77.89;100429.97;5203597;28;20042;-61
2022/09/13 09:52:13;;;;;;;3.55;1.80;;;25.10;88.20;;;26.18;77.66;100427.47;5204087;28;20041;-63
2022/09/13 09:54:48;;;;;;;1.90;1.42;;;25.20;88.00;;;26.23;76.86;100431.72;5204162;28;20072;-61
2022/09/13 09:57:22;;;;;;;1.73;1.20;;;25.30;87.20;;;26.29;76.43;100424.41;5203371;28;20065;-62
2022/09/13 10:00:12;;;;;;;2.00;1.25;;;25.30;86.60;;;26.40;76.59;100430.25;5203841;28;20132;-62
2022/09/13 10:02:44;;;;;;;2.10;1.30;;;25.50;86.90;;;26.48;74.57;100429.06;5203925;28;20080;-62
2022/09/13 10:05:20;;;;;;;1.80;1.27;;;25.50;85.10;;;26.58;75.15;100432.25;5203610;28;20395;-62
2022/09/13 10:07:55;;;;;;;3.83;1.35;;;25.50;85.20;;;26.66;76.51;100429.28;5203245;28;20099;-62
2022/09/13 10:10:37;;;;;;;2.78;1.30;;;25.60;86.20;;;26.75;75.92;100435.19;5204164;28;20045;-61
2022/09/13 10:13:17;;;;;;;2.10;1.30;;;25.80;85.80;;;26.83;75.69;100436.69;5204137;28;20506;-56
2022/09/13 10:15:57;;;;;;;1.52;1.20;;;25.80;85.40;;;26.91;75.68;100437.28;5203236;28;20046;-62
2022/09/13 10:18:31;;;;;;;2.20;1.42;;;25.90;85.40;;;27.03;75.61;100431.44;5203834;28;20099;-61
2022/09/13 10:21:07;;;;;;;1.55;1.20;;;26.00;85.20;;;27.08;74.17;100421.47;5203590;28;20056;-61
2022/09/13 10:23:39;;;;;;;2.55;1.40;;;26.00;83.90;;;27.03;72.86;100420.75;5203667;28;20405;-61
2022/09/13 10:26:15;;;;;;;2.30;1.30;;;26.00;82.50;;;26.94;71.93;100415.78;5203344;28;20068;-61
2022/09/13 10:28:56;;;;;;;2.22;1.20;;;26.00;81.10;;;26.91;72.03;100415.88;5203540;28;20039;-62
2022/09/13 10:31:32;;;;;;;2.10;1.48;;;26.00;81.60;;;26.99;73.86;100411.09;5203234;28;20448;-61
2022/09/13 10:34:11;;;;;;;2.50;1.27;;;26.10;82.40;;;27.02;74.11;100405.63;5203472;28;20421;-61
2022/09/13 10:36:52;;;;;;;1.75;1.20;;;26.10;82.60;;;27.02;73.17;100408.31;5203145;28;20471;-62
2022/09/13 10:39:29;;;;;;;5.28;1.40;;;26.10;81.70;;;27.00;74.07;100402.16;5203429;28;20049;-61
2022/09/13 10:42:06;;;;;;;1.95;1.30;;;26.10;82.30;;;26.96;74.54;100405.88;5203735;28;20046;-61
2022/09/13 10:44:44;;;;;;;1.77;1.10;;;26.10;82.70;;;26.92;75.32;100398.91;5203708;28;20046;-62
2022/09/13 10:47:22;;;;;;;3.47;1.33;;;26.00;83.00;;;26.92;74.92;100396.22;5203006;28;20470;-61
2022/09/13 10:49:58;;;;;;;2.83;1.58;;;26.00;82.90;;;26.91;74.43;100397.16;5203339;28;20052;-63
2022/09/13 10:52:34;;;;;;;2.05;1.40;;;26.00;82.40;;;26.90;74.07;100396.28;5206939;28;20483;-61